Latest Weather Observations for Cocos Island

IDW60801

Issued at 8:23 pm WST Thursday 20 September 2018 (issued every 10 minutes, with the page automatically refreshed every 10 minutes)

About weather observations | Map of weather stations | Latest weather observations for WA | Other Formats
Station Details ID: 200284 Name: COCOS ISLAND AIRPORT Lat: -12.19 Lon: 96.83 Height: 3.0 m
Data from the previous 72 hours. | See also: Recent months at Cocos Island
Date/Time
WST
Temp
°C
App
Temp
°C
Dew
Point
°C
Rel
Hum
%
Delta-T
°C
Wind Press
QNH
hPa
Press
MSL
hPa
Rain since
9am
mm
Dir  Spd
km/h
Gust
km/h
Spd
kts
Gust
kts
20/08:03pm 25.3 25.7 20.6 75 3.1 ESE 19 26 10 14 1013.1 - 0.0
20/08:00pm 25.3 25.5 20.2 73 3.3 ESE 19 26 10 14 1013.0 1012.9 0.0
20/07:42pm 25.4 25.8 20.7 75 3.1 ESE 19 28 10 15 1012.9 - 0.0
20/07:30pm 25.4 25.7 20.5 74 3.2 ESE 19 26 10 14 1012.7 - 0.0
20/07:00pm 25.7 26.4 20.5 73 3.4 ESE 17 26 9 14 1012.7 - 0.0
20/06:30pm 26.0 26.1 20.3 71 3.7 ESE 20 30 11 16 1012.5 - 0.0
20/06:00pm 26.5 26.6 20.4 69 4.0 ESE 20 28 11 15 1012.3 - 0.0
20/05:30pm 26.4 26.6 20.6 70 3.8 ESE 20 30 11 16 1012.1 - 0.0
20/05:00pm 26.4 26.8 20.9 72 3.6 ESE 20 30 11 16 1012.1 1012.0 0.0
20/04:30pm 26.6 27.0 20.7 70 3.9 ESE 19 30 10 16 1012.2 - 0.0
20/04:00pm 26.9 27.5 21.0 70 3.9 ESE 19 28 10 15 1012.4 - 0.0
20/03:30pm 27.3 27.5 20.6 67 4.4 ESE 20 32 11 17 1012.6 - 0.0
20/03:00pm 27.2 27.5 20.8 68 4.2 ESE 20 30 11 16 1012.8 - 0.0
20/02:30pm 27.2 27.8 21.0 69 4.1 ESE 19 26 10 14 1012.8 - 0.0
20/02:00pm 26.8 26.8 20.2 67 4.3 ESE 20 32 11 17 1013.1 1013.0 0.0
20/01:30pm 26.6 26.8 20.5 69 4.0 ESE 20 32 11 17 1013.5 - 0.0
20/01:00pm 27.2 27.3 21.2 69 4.0 ESE 22 32 12 17 1013.7 - 0.0
20/12:30pm 26.9 27.2 20.5 68 4.2 ESE 19 30 10 16 1014.2 - 0.0
20/12:00pm 26.9 26.2 20.3 67 4.3 ESE 24 33 13 18 1014.4 - 0.0
20/11:30am 27.4 27.3 20.7 67 4.4 ESE 22 33 12 18 1014.7 - 0.0
20/11:00am 25.6 25.9 20.7 74 3.2 ESE 20 35 11 19 1014.7 1014.6 0.0
20/10:30am 25.9 24.9 20.4 71 3.6 ESE 26 33 14 18 1014.7 - 0.0
20/10:00am 25.7 26.0 20.8 74 3.2 ESE 20 30 11 16 1014.6 - 0.0
20/09:30am 25.7 25.3 20.2 71 3.6 ESE 22 33 12 18 1014.1 - 0.0
20/09:00am 24.9 23.3 20.0 74 3.2 ESE 28 37 15 20 1013.9 - 0.0
20/08:30am 25.0 24.9 19.9 73 3.3 ESE 20 30 11 16 1013.6 - 0.0
20/08:00am 24.7 24.2 19.9 74 3.1 ESE 22 32 12 17 1013.3 1013.2 0.0
20/07:30am 24.4 23.7 19.4 73 3.2 ESE 22 32 12 17 1012.8 - 0.0
20/07:00am 24.4 24.7 19.6 74 3.1 E 17 30 9 16 1012.6 - 0.0
20/06:30am 24.3 24.2 19.6 75 3.0 ESE 19 33 10 18 1012.4 - 0.0
20/06:00am 24.3 24.1 19.8 76 2.9 ESE 20 30 11 16 1012.2 - 0.0
20/05:30am 24.3 24.4 20.0 77 2.8 ESE 19 30 10 16 1012.2 - 0.0
20/05:00am 24.5 24.6 20.0 76 2.9 ESE 19 33 10 18 1012.1 1012.0 0.0
20/04:30am 24.6 24.9 20.3 77 2.8 ESE 19 28 10 15 1012.2 - 0.0
20/04:00am 24.5 24.9 19.9 75 3.0 E 17 24 9 13 1012.3 - 0.0
20/03:30am 24.5 25.1 20.2 77 2.8 E 17 28 9 15 1012.4 - 0.0
20/03:20am 24.6 24.3 19.6 73 3.2 ESE 20 32 11 17 1012.5 - 0.0
20/03:01am 24.4 24.8 19.9 76 2.9 ESE 17 30 9 16 1012.6 - 0.0
20/03:00am 24.5 24.9 19.9 75 3.0 E 17 30 9 16 1012.7 - 0.0
20/02:30am 24.6 24.0 18.9 70 3.6 E 20 32 11 17 1012.9 - 0.0
20/02:00am 24.8 23.9 19.8 74 3.2 E 24 32 13 17 1013.4 1013.3 0.0
20/01:30am 24.9 23.9 18.9 69 3.8 E 22 33 12 18 1013.9 - 0.0
20/01:00am 24.8 23.7 19.5 72 3.4 E 24 33 13 18 1014.2 - 0.0
20/12:30am 24.9 24.3 18.9 69 3.8 E 20 37 11 20 1014.5 - 0.0
20/12:00am 24.9 23.5 19.6 72 3.4 E 26 35 14 19 1014.8 - 0.0
 
Date/Time
WST
Temp
°C
App
Temp
°C
Dew
Point
°C
Rel
Hum
%
Delta-T
°C
Wind Press
QNH
hPa
Press
MSL
hPa
Rain since
9am
mm
Dir  Spd
km/h
Gust
km/h
Spd
kts
Gust
kts
19/11:30pm 24.9 24.2 19.6 72 3.4 ESE 22 35 12 19 1014.8 - 0.0
19/11:00pm 24.9 23.8 19.4 71 3.5 ESE 24 39 13 21 1014.6 1014.5 0.0
19/10:30pm 25.1 23.3 18.8 68 4.0 E 26 37 14 20 1014.6 - 0.0
19/10:00pm 25.0 24.1 19.0 69 3.8 ESE 22 32 12 17 1014.5 - 0.0
19/09:30pm 25.2 23.8 18.9 68 4.0 ESE 24 39 13 21 1014.3 - 0.0
19/09:00pm 25.2 23.5 18.9 68 4.0 ESE 26 39 14 21 1014.3 - 0.0
19/08:30pm 25.3 23.2 19.0 68 4.0 ESE 28 39 15 21 1014.0 - 0.0
19/08:00pm 25.3 23.2 19.0 68 4.0 ESE 28 39 15 21 1013.6 1013.5 0.0
19/07:30pm 25.4 24.3 19.5 70 3.8 ESE 24 41 13 22 1013.3 - 0.0
19/07:23pm 25.6 25.0 20.6 74 3.3 ESE 24 41 13 22 1013.3 - 0.0
19/07:04pm 25.5 24.0 20.3 73 3.4 ESE 28 39 15 21 1013.2 - 0.0
19/07:00pm 25.5 23.4 19.8 70 3.7 ESE 30 39 16 21 1013.2 - 0.0
19/06:30pm 26.1 25.1 20.4 71 3.7 ESE 26 41 14 22 1012.8 - 0.0
19/06:00pm 26.4 24.1 20.1 68 4.1 ESE 32 44 17 24 1012.3 - 0.0
19/05:30pm 26.4 24.8 20.1 68 4.1 ESE 28 39 15 21 1012.2 - 0.0
19/05:00pm 26.8 25.3 20.9 70 3.9 ESE 30 43 16 23 1012.1 1012.0 0.0
19/04:30pm 26.9 26.1 20.8 69 4.0 ESE 26 39 14 21 1012.3 - 0.0
19/04:00pm 27.3 25.8 20.3 65 4.6 ESE 28 41 15 22 1012.4 - 0.0
19/03:30pm 27.4 26.0 20.4 65 4.6 ESE 28 41 15 22 1012.7 - 0.0
19/03:00pm 27.2 25.6 20.0 64 4.7 ESE 28 41 15 22 1013.0 - 0.0
19/02:30pm 27.3 26.5 20.8 67 4.3 ESE 26 41 14 22 1013.5 - 0.0
19/02:00pm 26.8 25.2 20.0 66 4.4 ESE 28 41 15 22 1013.9 1013.8 0.0
19/01:30pm 27.7 26.5 20.0 63 5.0 ESE 26 41 14 22 1014.3 - 0.0
19/01:00pm 27.5 26.4 20.3 65 4.7 ESE 26 41 14 22 1014.7 - 0.0
19/12:52pm 27.3 25.6 19.9 64 4.8 ESE 28 46 15 25 1014.8 - 0.0
19/12:30pm 27.0 25.2 20.4 67 4.3 ESE 30 39 16 21 1015.1 - 0.0
19/12:00pm 27.3 26.5 20.8 67 4.3 ESE 26 44 14 24 1015.4 - 0.0
19/11:30am 27.1 25.6 20.2 66 4.5 ESE 28 41 15 22 1015.7 - 0.0
19/11:00am 26.8 26.2 20.4 68 4.2 ESE 24 37 13 20 1015.8 1015.7 0.0
19/10:30am 26.6 26.0 20.5 69 4.0 ESE 24 37 13 20 1015.9 - 0.0
19/10:00am 26.2 25.4 20.0 68 4.0 ESE 24 39 13 21 1015.9 - 0.0
19/09:30am 25.9 24.8 19.5 68 4.1 ESE 24 35 13 19 1015.7 - 0.0
19/09:00am 25.7 25.5 19.8 70 3.8 ESE 20 35 11 19 1015.5 - 0.0
19/08:30am 25.2 24.1 19.4 70 3.7 ESE 24 39 13 21 1015.3 - 0.0
19/08:00am 24.7 24.5 19.7 73 3.2 ESE 20 33 11 18 1015.0 1014.9 0.0
19/07:30am 24.6 23.3 19.1 71 3.5 ESE 24 39 13 21 1014.5 - 0.0
19/07:00am 24.7 23.0 18.9 70 3.7 ESE 26 41 14 22 1014.2 - 0.0
19/06:30am 24.7 22.7 19.1 71 3.6 ESE 28 43 15 23 1013.9 - 0.0
19/06:00am 24.7 23.0 19.7 73 3.2 ESE 28 39 15 21 1013.6 - 0.0
19/05:30am 24.6 23.6 19.6 73 3.2 ESE 24 39 13 21 1013.5 - 0.0
19/05:00am 24.7 23.8 19.9 74 3.1 ESE 24 33 13 18 1013.5 1013.4 0.0
19/04:30am 24.7 23.7 19.7 73 3.2 ESE 24 35 13 19 1013.4 - 0.0
19/04:00am 24.8 24.4 20.2 75 3.0 ESE 22 35 12 19 1013.7 - 0.0
19/03:30am 24.9 24.2 20.3 75 3.0 E 24 39 13 21 1013.9 - 0.0
19/03:02am 24.9 24.3 19.8 73 3.3 E 22 39 12 21 1014.2 - 0.0
19/03:00am 25.0 24.1 19.9 73 3.3 E 24 39 13 21 1014.3 - 0.0
19/02:39am 25.0 23.7 19.9 73 3.3 E 26 41 14 22 1014.5 - 0.0
19/02:30am 25.0 24.3 20.2 74 3.1 E 24 35 13 19 1014.6 - 0.0
19/02:00am 25.1 24.4 20.2 74 3.2 E 24 39 13 21 1015.0 1014.9 0.0
19/01:30am 25.0 25.3 20.7 77 2.8 E 20 33 11 18 1015.3 - 0.0
19/01:00am 25.1 24.6 20.7 76 2.9 ESE 24 35 13 19 1015.5 - 0.0
19/12:30am 25.2 24.6 20.4 74 3.1 E 24 37 13 20 1015.7 - 0.0
19/12:00am 25.2 23.7 20.3 74 3.2 E 28 44 15 24 1015.6 - 0.0
 
Date/Time
WST
Temp
°C
App
Temp
°C
Dew
Point
°C
Rel
Hum
%
Delta-T
°C
Wind Press
QNH
hPa
Press
MSL
hPa
Rain since
9am
mm
Dir  Spd
km/h
Gust
km/h
Spd
kts
Gust
kts
18/11:30pm 25.3 24.5 20.9 76 2.9 ESE 26 39 14 21 1015.7 - 0.0
18/11:00pm 25.3 24.6 20.2 73 3.3 ESE 24 39 13 21 1015.7 1015.6 0.0
18/10:30pm 25.2 25.4 20.6 75 3.0 ESE 20 35 11 19 1015.7 - 0.0
18/10:00pm 25.3 24.2 20.2 73 3.3 ESE 26 41 14 22 1015.5 - 0.0
18/09:30pm 25.5 24.2 19.9 71 3.6 ESE 26 41 14 22 1015.4 - 0.0
18/09:00pm 25.6 24.1 19.5 69 3.9 ESE 26 44 14 24 1015.2 - 0.0
18/08:49pm 25.6 24.2 20.4 73 3.4 ESE 28 46 15 25 1015.1 - 0.0
18/08:30pm 25.5 23.3 20.3 73 3.4 ESE 32 44 17 24 1014.9 - 0.0
18/08:00pm 25.7 25.8 21.2 76 3.0 ESE 22 35 12 19 1014.6 1014.5 0.0
18/07:30pm 25.6 25.1 20.7 74 3.2 ESE 24 35 13 19 1014.1 - 0.0
18/07:00pm 25.9 25.1 20.9 74 3.3 ESE 26 44 14 24 1013.9 - 0.0
18/06:30pm 26.2 26.2 21.0 73 3.4 ESE 22 35 12 19 1013.6 - 0.0
18/06:00pm 26.7 24.9 20.3 68 4.2 ESE 30 43 16 23 1013.4 - 0.0
18/05:30pm 26.9 26.3 20.5 68 4.2 ESE 24 39 13 21 1013.1 - 0.0
18/05:00pm 26.9 26.1 20.8 69 4.0 ESE 26 43 14 23 1013.2 1013.1 0.0
18/04:47pm 27.1 25.8 20.7 68 4.2 ESE 28 46 15 25 1013.3 - 0.0
18/04:30pm 27.0 26.2 20.9 69 4.0 ESE 26 37 14 20 1013.2 - 0.0
18/04:11pm 27.2 25.3 20.2 65 4.6 ESE 30 48 16 26 1013.3 - 0.0
18/04:00pm 27.4 26.7 21.1 68 4.2 ESE 26 39 14 21 1013.3 - 0.0
18/03:45pm 26.9 25.6 20.7 69 4.1 E 28 46 15 25 1013.3 - 0.0
18/03:30pm 27.3 26.6 21.1 69 4.1 ESE 26 41 14 22 1013.5 - 0.0
18/03:00pm 27.2 26.4 20.8 68 4.2 ESE 26 44 14 24 1013.7 - 0.0
18/02:46pm 27.2 25.7 20.2 65 4.6 ESE 28 46 15 25 1013.9 - 0.0
18/02:30pm 27.5 25.9 20.8 67 4.4 ESE 30 44 16 24 1014.0 - 0.0
18/02:00pm 27.7 26.4 20.6 65 4.7 ESE 28 46 15 25 1014.3 1014.2 0.0
18/01:59pm 27.3 25.9 20.4 66 4.5 ESE 28 46 15 25 1014.3 - 0.0
18/01:30pm 27.3 26.2 21.1 69 4.1 ESE 28 41 15 22 1014.6 - 0.0
18/01:00pm 27.1 26.6 20.7 68 4.2 ESE 24 41 13 22 1014.9 - 0.0
18/12:30pm 27.4 26.5 20.6 66 4.5 ESE 26 41 14 22 1015.2 - 0.0
18/12:12pm 26.9 25.4 20.3 67 4.3 ESE 28 46 15 25 1015.4 - 0.0
18/12:00pm 27.3 26.5 20.9 68 4.2 ESE 26 39 14 21 1015.6 - 0.0
18/11:30am 27.4 26.4 20.4 65 4.6 ESE 26 41 14 22 1015.8 - 0.0
18/11:00am 26.8 26.2 20.5 68 4.1 ESE 24 44 13 24 1016.1 1016.0 0.2
18/10:30am 26.5 25.4 20.2 68 4.1 ESE 26 43 14 23 1016.0 - 0.2
18/10:00am 26.4 25.6 20.8 71 3.7 ESE 26 41 14 22 1016.0 - 0.0
18/09:30am 25.8 24.0 20.4 72 3.5 E 30 39 16 21 1015.8 - 0.0
18/09:00am 25.4 25.3 20.8 75 3.0 E 22 35 12 19 1015.5 - 0.0
18/08:30am 25.3 24.8 20.7 75 3.0 E 24 37 13 20 1015.2 - 0.0
18/08:00am 25.2 24.2 20.4 74 3.1 E 26 37 14 20 1014.9 1014.8 0.0
18/07:30am 25.1 25.0 20.8 77 2.8 E 22 37 12 20 1014.5 - 0.0
18/07:16am 25.2 24.7 20.8 76 2.9 ESE 24 39 13 21 1014.3 - 0.0
18/07:00am 25.1 25.0 20.7 76 2.9 ESE 22 39 12 21 1014.1 - 0.0
18/06:57am 25.0 25.0 20.9 78 2.7 ESE 22 37 12 20 1014.0 - 0.0
18/06:30am 25.0 25.4 20.6 76 2.9 E 19 33 10 18 1013.9 - 0.0
18/06:00am 25.0 25.0 20.9 78 2.7 ESE 22 37 12 20 1013.9 - 0.0
18/05:30am 24.9 25.0 21.1 79 2.5 E 22 33 12 18 1013.7 - 0.0
18/05:00am 25.1 24.9 20.5 75 3.0 E 22 35 12 19 1013.6 1013.5 0.0
18/04:30am 25.2 24.9 20.3 74 3.2 ESE 22 39 12 21 1013.6 - 0.0
18/04:00am 25.2 24.6 20.6 75 3.0 E 24 37 13 20 1013.8 - 0.0
18/03:30am 25.2 25.0 21.3 79 2.6 E 24 35 13 19 1013.7 - 0.0
18/03:00am 25.2 25.2 20.9 77 2.8 E 22 39 12 21 1014.0 - 0.0
18/02:30am 25.2 24.8 20.9 77 2.8 ESE 24 37 13 20 1014.2 - 0.0
18/02:00am 25.4 24.9 20.8 75 3.0 ESE 24 37 13 20 1014.4 1014.3 0.0
18/01:30am 25.4 25.0 21.0 76 2.9 ESE 24 39 13 21 1014.9 - 0.0
18/01:00am 25.6 23.4 20.4 73 3.4 ESE 32 43 17 23 1015.1 - 0.0
18/12:30am 25.6 24.7 20.7 74 3.2 ESE 26 41 14 22 1015.3 - 0.0
18/12:00am 25.5 25.8 21.6 79 2.6 ESE 22 33 12 18 1015.4 - 0.0
 
Date/Time
WST
Temp
°C
App
Temp
°C
Dew
Point
°C
Rel
Hum
%
Delta-T
°C
Wind Press
QNH
hPa
Press
MSL
hPa
Rain since
9am
mm
Dir  Spd
km/h
Gust
km/h
Spd
kts
Gust
kts
17/11:30pm 25.5 25.1 20.9 75 3.0 ESE 24 35 13 19 1015.4 - 0.0
17/11:00pm 25.0 25.2 22.0 83 2.0 ESE 24 37 13 20 1015.4 1015.3 0.0
17/10:30pm 25.6 25.1 21.5 78 2.7 ESE 26 41 14 22 1015.1 - 0.0
17/10:00pm 25.6 25.1 21.4 77 2.8 ESE 26 43 14 23 1014.8 - 0.0

Other Formats:

Comma delimited format used in spreadsheet applications
http://www.bom.gov.au/fwo/IDW60801/IDW60801.96996.axf

JavaScript Object Notation format (JSON) in row-major order
http://www.bom.gov.au/fwo/IDW60801/IDW60801.96996.json